sensor_id;sensor_type;location;lat;lon;timestamp;P1;durP1;ratioP1;P2;durP2;ratioP2
38023;SDS011;23834;48.080;11.682;2023-12-04T00:00:33;6.20;;;5.70;;
38023;SDS011;23834;48.080;11.682;2023-12-04T00:02:58;6.27;;;5.77;;
38023;SDS011;23834;48.080;11.682;2023-12-04T00:05:23;5.50;;;5.10;;
38023;SDS011;23834;48.080;11.682;2023-12-04T00:07:49;5.63;;;5.23;;
38023;SDS011;23834;48.080;11.682;2023-12-04T00:10:14;5.43;;;4.97;;
38023;SDS011;23834;48.080;11.682;2023-12-04T00:12:39;5.77;;;5.37;;
38023;SDS011;23834;48.080;11.682;2023-12-04T00:15:04;6.13;;;5.73;;
38023;SDS011;23834;48.080;11.682;2023-12-04T00:17:30;5.40;;;5.00;;
38023;SDS011;23834;48.080;11.682;2023-12-04T00:19:55;5.60;;;5.20;;
38023;SDS011;23834;48.080;11.682;2023-12-04T00:22:20;5.80;;;5.40;;
38023;SDS011;23834;48.080;11.682;2023-12-04T00:24:45;5.80;;;5.40;;
38023;SDS011;23834;48.080;11.682;2023-12-04T00:27:11;5.37;;;5.00;;
38023;SDS011;23834;48.080;11.682;2023-12-04T00:29:37;5.50;;;5.10;;
38023;SDS011;23834;48.080;11.682;2023-12-04T00:32:02;5.80;;;5.40;;
38023;SDS011;23834;48.080;11.682;2023-12-04T00:34:27;5.53;;;5.10;;
38023;SDS011;23834;48.080;11.682;2023-12-04T00:36:52;5.97;;;5.50;;
38023;SDS011;23834;48.080;11.682;2023-12-04T00:39:17;5.50;;;5.10;;
38023;SDS011;23834;48.080;11.682;2023-12-04T00:41:43;6.00;;;5.50;;
38023;SDS011;23834;48.080;11.682;2023-12-04T00:44:08;4.90;;;4.60;;
38023;SDS011;23834;48.080;11.682;2023-12-04T00:46:33;5.80;;;5.40;;
38023;SDS011;23834;48.080;11.682;2023-12-04T00:48:58;5.57;;;5.17;;
38023;SDS011;23834;48.080;11.682;2023-12-04T00:51:23;6.30;;;5.80;;
38023;SDS011;23834;48.080;11.682;2023-12-04T00:53:48;5.50;;;5.00;;
38023;SDS011;23834;48.080;11.682;2023-12-04T00:56:14;5.27;;;4.97;;
38023;SDS011;23834;48.080;11.682;2023-12-04T00:58:39;5.10;;;4.70;;
38023;SDS011;23834;48.080;11.682;2023-12-04T01:01:04;5.40;;;5.00;;
38023;SDS011;23834;48.080;11.682;2023-12-04T01:03:29;4.73;;;4.33;;
38023;SDS011;23834;48.080;11.682;2023-12-04T01:05:57;5.73;;;5.23;;
38023;SDS011;23834;48.080;11.682;2023-12-04T01:08:23;5.43;;;5.03;;
38023;SDS011;23834;48.080;11.682;2023-12-04T01:10:48;5.63;;;5.17;;
38023;SDS011;23834;48.080;11.682;2023-12-04T01:13:13;5.23;;;4.83;;
38023;SDS011;23834;48.080;11.682;2023-12-04T01:15:38;5.23;;;4.80;;
38023;SDS011;23834;48.080;11.682;2023-12-04T01:18:04;5.10;;;4.70;;
38023;SDS011;23834;48.080;11.682;2023-12-04T01:20:29;5.00;;;4.60;;
38023;SDS011;23834;48.080;11.682;2023-12-04T01:22:54;5.17;;;4.80;;
38023;SDS011;23834;48.080;11.682;2023-12-04T01:25:19;5.30;;;4.90;;
38023;SDS011;23834;48.080;11.682;2023-12-04T01:27:44;5.07;;;4.70;;
38023;SDS011;23834;48.080;11.682;2023-12-04T01:30:10;4.90;;;4.60;;
38023;SDS011;23834;48.080;11.682;2023-12-04T01:32:35;4.70;;;4.40;;
38023;SDS011;23834;48.080;11.682;2023-12-04T01:35:01;4.60;;;4.30;;
38023;SDS011;23834;48.080;11.682;2023-12-04T01:37:26;4.47;;;4.17;;
38023;SDS011;23834;48.080;11.682;2023-12-04T01:39:51;4.53;;;4.23;;
38023;SDS011;23834;48.080;11.682;2023-12-04T01:42:17;4.40;;;4.00;;
38023;SDS011;23834;48.080;11.682;2023-12-04T01:44:42;4.40;;;4.10;;
38023;SDS011;23834;48.080;11.682;2023-12-04T01:47:08;4.47;;;4.17;;
38023;SDS011;23834;48.080;11.682;2023-12-04T01:49:33;5.00;;;4.60;;
38023;SDS011;23834;48.080;11.682;2023-12-04T01:51:58;4.53;;;4.23;;
38023;SDS011;23834;48.080;11.682;2023-12-04T01:54:23;4.10;;;3.80;;
38023;SDS011;23834;48.080;11.682;2023-12-04T01:56:49;3.90;;;3.67;;
38023;SDS011;23834;48.080;11.682;2023-12-04T01:59:14;4.20;;;3.90;;
38023;SDS011;23834;48.080;11.682;2023-12-04T02:01:41;4.20;;;3.90;;
38023;SDS011;23834;48.080;11.682;2023-12-04T02:04:07;4.30;;;4.00;;
38023;SDS011;23834;48.080;11.682;2023-12-04T02:06:32;4.10;;;3.80;;
38023;SDS011;23834;48.080;11.682;2023-12-04T02:08:57;4.10;;;3.80;;
38023;SDS011;23834;48.080;11.682;2023-12-04T02:11:23;3.93;;;3.70;;
38023;SDS011;23834;48.080;11.682;2023-12-04T02:13:48;4.00;;;3.70;;
38023;SDS011;23834;48.080;11.682;2023-12-04T02:16:13;3.97;;;3.77;;
38023;SDS011;23834;48.080;11.682;2023-12-04T02:18:39;3.60;;;3.40;;
38023;SDS011;23834;48.080;11.682;2023-12-04T02:21:05;4.27;;;3.97;;
38023;SDS011;23834;48.080;11.682;2023-12-04T02:23:30;3.60;;;3.40;;
38023;SDS011;23834;48.080;11.682;2023-12-04T02:25:58;3.97;;;3.67;;
38023;SDS011;23834;48.080;11.682;2023-12-04T02:28:24;4.00;;;3.70;;
38023;SDS011;23834;48.080;11.682;2023-12-04T02:30:50;4.10;;;3.80;;
38023;SDS011;23834;48.080;11.682;2023-12-04T02:33:16;4.17;;;3.87;;
38023;SDS011;23834;48.080;11.682;2023-12-04T02:35:42;3.90;;;3.60;;
38023;SDS011;23834;48.080;11.682;2023-12-04T02:38:07;3.70;;;3.50;;
38023;SDS011;23834;48.080;11.682;2023-12-04T02:40:33;2.97;;;2.87;;
38023;SDS011;23834;48.080;11.682;2023-12-04T02:42:58;4.30;;;4.00;;
38023;SDS011;23834;48.080;11.682;2023-12-04T02:45:24;3.83;;;3.53;;
38023;SDS011;23834;48.080;11.682;2023-12-04T02:47:49;3.70;;;3.50;;
38023;SDS011;23834;48.080;11.682;2023-12-04T02:50:14;3.90;;;3.60;;
38023;SDS011;23834;48.080;11.682;2023-12-04T02:52:39;3.40;;;3.20;;
38023;SDS011;23834;48.080;11.682;2023-12-04T02:55:04;3.23;;;3.03;;
38023;SDS011;23834;48.080;11.682;2023-12-04T02:57:30;3.60;;;3.40;;
38023;SDS011;23834;48.080;11.682;2023-12-04T02:59:55;3.47;;;3.27;;
38023;SDS011;23834;48.080;11.682;2023-12-04T03:02:20;3.50;;;3.30;;
38023;SDS011;23834;48.080;11.682;2023-12-04T03:04:45;3.50;;;3.30;;
38023;SDS011;23834;48.080;11.682;2023-12-04T03:07:10;3.50;;;3.30;;
38023;SDS011;23834;48.080;11.682;2023-12-04T03:09:36;3.13;;;2.93;;
38023;SDS011;23834;48.080;11.682;2023-12-04T03:12:01;3.20;;;3.00;;
38023;SDS011;23834;48.080;11.682;2023-12-04T03:14:26;3.30;;;3.10;;
38023;SDS011;23834;48.080;11.682;2023-12-04T03:16:51;3.43;;;3.13;;
38023;SDS011;23834;48.080;11.682;2023-12-04T03:19:16;3.60;;;3.37;;
38023;SDS011;23834;48.080;11.682;2023-12-04T03:21:41;3.50;;;3.30;;
38023;SDS011;23834;48.080;11.682;2023-12-04T03:24:07;3.57;;;3.37;;
38023;SDS011;23834;48.080;11.682;2023-12-04T03:26:32;3.20;;;3.00;;
38023;SDS011;23834;48.080;11.682;2023-12-04T03:28:57;2.60;;;2.50;;
38023;SDS011;23834;48.080;11.682;2023-12-04T03:31:22;3.27;;;3.07;;
38023;SDS011;23834;48.080;11.682;2023-12-04T03:33:47;3.50;;;3.23;;
38023;SDS011;23834;48.080;11.682;2023-12-04T03:36:13;3.03;;;2.83;;
38023;SDS011;23834;48.080;11.682;2023-12-04T03:38:38;3.30;;;3.10;;
38023;SDS011;23834;48.080;11.682;2023-12-04T03:41:03;3.37;;;3.17;;
38023;SDS011;23834;48.080;11.682;2023-12-04T03:43:28;3.17;;;2.97;;
38023;SDS011;23834;48.080;11.682;2023-12-04T03:45:53;2.90;;;2.70;;
38023;SDS011;23834;48.080;11.682;2023-12-04T03:48:19;3.60;;;3.30;;
38023;SDS011;23834;48.080;11.682;2023-12-04T03:50:44;2.70;;;2.60;;
38023;SDS011;23834;48.080;11.682;2023-12-04T03:53:09;3.10;;;2.90;;
38023;SDS011;23834;48.080;11.682;2023-12-04T03:55:34;3.17;;;2.97;;
38023;SDS011;23834;48.080;11.682;2023-12-04T03:57:59;3.23;;;3.03;;
38023;SDS011;23834;48.080;11.682;2023-12-04T04:00:24;2.73;;;2.63;;
38023;SDS011;23834;48.080;11.682;2023-12-04T04:02:50;2.90;;;2.80;;
38023;SDS011;23834;48.080;11.682;2023-12-04T04:05:15;2.97;;;2.77;;
38023;SDS011;23834;48.080;11.682;2023-12-04T04:07:40;3.30;;;3.00;;
38023;SDS011;23834;48.080;11.682;2023-12-04T04:10:06;2.83;;;2.73;;
38023;SDS011;23834;48.080;11.682;2023-12-04T04:12:31;3.20;;;3.00;;
38023;SDS011;23834;48.080;11.682;2023-12-04T04:14:57;2.60;;;2.50;;
38023;SDS011;23834;48.080;11.682;2023-12-04T04:17:22;3.03;;;2.83;;
38023;SDS011;23834;48.080;11.682;2023-12-04T04:19:50;2.87;;;2.67;;
38023;SDS011;23834;48.080;11.682;2023-12-04T04:22:15;2.80;;;2.60;;
38023;SDS011;23834;48.080;11.682;2023-12-04T04:24:41;2.50;;;2.40;;
38023;SDS011;23834;48.080;11.682;2023-12-04T04:27:06;2.77;;;2.57;;
38023;SDS011;23834;48.080;11.682;2023-12-04T04:29:31;2.80;;;2.60;;
38023;SDS011;23834;48.080;11.682;2023-12-04T04:31:56;2.93;;;2.73;;
38023;SDS011;23834;48.080;11.682;2023-12-04T04:34:21;3.30;;;2.67;;
38023;SDS011;23834;48.080;11.682;2023-12-04T04:36:46;3.10;;;2.90;;
38023;SDS011;23834;48.080;11.682;2023-12-04T04:39:12;2.90;;;2.70;;
38023;SDS011;23834;48.080;11.682;2023-12-04T04:41:38;2.13;;;2.03;;
38023;SDS011;23834;48.080;11.682;2023-12-04T04:44:04;2.93;;;2.73;;
38023;SDS011;23834;48.080;11.682;2023-12-04T04:46:29;2.70;;;2.50;;
38023;SDS011;23834;48.080;11.682;2023-12-04T04:48:54;2.77;;;2.57;;
38023;SDS011;23834;48.080;11.682;2023-12-04T04:51:20;2.80;;;2.60;;
38023;SDS011;23834;48.080;11.682;2023-12-04T04:53:45;2.67;;;2.57;;
38023;SDS011;23834;48.080;11.682;2023-12-04T04:56:10;2.83;;;2.63;;
38023;SDS011;23834;48.080;11.682;2023-12-04T04:58:35;4.63;;;2.60;;
38023;SDS011;23834;48.080;11.682;2023-12-04T05:01:01;2.93;;;2.73;;
38023;SDS011;23834;48.080;11.682;2023-12-04T05:03:26;2.67;;;2.47;;
38023;SDS011;23834;48.080;11.682;2023-12-04T05:05:51;2.90;;;2.70;;
38023;SDS011;23834;48.080;11.682;2023-12-04T05:08:17;2.70;;;2.50;;
38023;SDS011;23834;48.080;11.682;2023-12-04T05:10:42;2.60;;;2.40;;
38023;SDS011;23834;48.080;11.682;2023-12-04T05:13:07;2.70;;;2.50;;
38023;SDS011;23834;48.080;11.682;2023-12-04T05:15:32;2.50;;;2.40;;
38023;SDS011;23834;48.080;11.682;2023-12-04T05:17:58;2.47;;;2.27;;
38023;SDS011;23834;48.080;11.682;2023-12-04T05:20:23;2.43;;;2.33;;
38023;SDS011;23834;48.080;11.682;2023-12-04T05:22:48;2.87;;;2.67;;
38023;SDS011;23834;48.080;11.682;2023-12-04T05:25:14;3.03;;;2.83;;
38023;SDS011;23834;48.080;11.682;2023-12-04T05:27:39;3.10;;;2.90;;
38023;SDS011;23834;48.080;11.682;2023-12-04T05:30:04;3.10;;;2.90;;
38023;SDS011;23834;48.080;11.682;2023-12-04T05:32:30;2.90;;;2.70;;
38023;SDS011;23834;48.080;11.682;2023-12-04T05:34:55;3.27;;;2.97;;
38023;SDS011;23834;48.080;11.682;2023-12-04T05:37:20;3.30;;;3.10;;
38023;SDS011;23834;48.080;11.682;2023-12-04T05:39:45;3.17;;;2.97;;
38023;SDS011;23834;48.080;11.682;2023-12-04T05:42:11;3.00;;;2.80;;
38023;SDS011;23834;48.080;11.682;2023-12-04T05:44:36;3.83;;;3.53;;
38023;SDS011;23834;48.080;11.682;2023-12-04T05:47:02;3.30;;;3.00;;
38023;SDS011;23834;48.080;11.682;2023-12-04T05:49:27;3.13;;;2.93;;
38023;SDS011;23834;48.080;11.682;2023-12-04T05:51:54;3.10;;;2.90;;
38023;SDS011;23834;48.080;11.682;2023-12-04T05:54:19;2.90;;;2.70;;
38023;SDS011;23834;48.080;11.682;2023-12-04T05:56:44;3.07;;;2.87;;
38023;SDS011;23834;48.080;11.682;2023-12-04T05:59:09;3.10;;;2.90;;
38023;SDS011;23834;48.080;11.682;2023-12-04T06:01:35;3.03;;;2.83;;
38023;SDS011;23834;48.080;11.682;2023-12-04T06:04:00;3.10;;;2.90;;
38023;SDS011;23834;48.080;11.682;2023-12-04T06:06:26;3.60;;;3.40;;
38023;SDS011;23834;48.080;11.682;2023-12-04T06:08:52;3.00;;;2.80;;
38023;SDS011;23834;48.080;11.682;2023-12-04T06:11:17;3.77;;;3.37;;
38023;SDS011;23834;48.080;11.682;2023-12-04T06:13:42;3.60;;;3.30;;
38023;SDS011;23834;48.080;11.682;2023-12-04T06:16:07;3.40;;;3.20;;
38023;SDS011;23834;48.080;11.682;2023-12-04T06:18:33;3.53;;;3.23;;
38023;SDS011;23834;48.080;11.682;2023-12-04T06:20:58;3.40;;;3.10;;
38023;SDS011;23834;48.080;11.682;2023-12-04T06:23:23;3.90;;;3.63;;
38023;SDS011;23834;48.080;11.682;2023-12-04T06:25:48;3.50;;;3.30;;
38023;SDS011;23834;48.080;11.682;2023-12-04T06:28:14;3.43;;;3.23;;
38023;SDS011;23834;48.080;11.682;2023-12-04T06:30:39;3.37;;;3.17;;
38023;SDS011;23834;48.080;11.682;2023-12-04T06:33:04;3.20;;;2.90;;
38023;SDS011;23834;48.080;11.682;2023-12-04T06:35:30;3.40;;;3.10;;
38023;SDS011;23834;48.080;11.682;2023-12-04T06:37:55;3.30;;;3.10;;
38023;SDS011;23834;48.080;11.682;2023-12-04T06:40:21;3.07;;;2.87;;
38023;SDS011;23834;48.080;11.682;2023-12-04T06:42:46;3.47;;;3.17;;
38023;SDS011;23834;48.080;11.682;2023-12-04T06:45:12;2.90;;;2.70;;
38023;SDS011;23834;48.080;11.682;2023-12-04T06:47:37;3.37;;;3.17;;
38023;SDS011;23834;48.080;11.682;2023-12-04T06:50:05;3.03;;;2.83;;
38023;SDS011;23834;48.080;11.682;2023-12-04T06:52:30;3.23;;;3.03;;
38023;SDS011;23834;48.080;11.682;2023-12-04T06:54:55;3.23;;;3.03;;
38023;SDS011;23834;48.080;11.682;2023-12-04T06:57:20;2.70;;;2.50;;
38023;SDS011;23834;48.080;11.682;2023-12-04T06:59:46;3.30;;;3.10;;
38023;SDS011;23834;48.080;11.682;2023-12-04T07:02:11;3.43;;;3.13;;
38023;SDS011;23834;48.080;11.682;2023-12-04T07:04:36;3.40;;;3.07;;
38023;SDS011;23834;48.080;11.682;2023-12-04T07:07:02;3.63;;;3.33;;
38023;SDS011;23834;48.080;11.682;2023-12-04T07:09:33;3.13;;;2.93;;
38023;SDS011;23834;48.080;11.682;2023-12-04T07:11:59;2.93;;;2.73;;
38023;SDS011;23834;48.080;11.682;2023-12-04T07:14:24;3.30;;;2.97;;
38023;SDS011;23834;48.080;11.682;2023-12-04T07:16:49;4.83;;;3.50;;
38023;SDS011;23834;48.080;11.682;2023-12-04T07:19:14;3.30;;;3.03;;
38023;SDS011;23834;48.080;11.682;2023-12-04T07:21:41;3.60;;;3.30;;
38023;SDS011;23834;48.080;11.682;2023-12-04T07:24:06;4.00;;;3.70;;
38023;SDS011;23834;48.080;11.682;2023-12-04T07:26:32;4.00;;;3.60;;
38023;SDS011;23834;48.080;11.682;2023-12-04T07:28:58;3.87;;;3.57;;
38023;SDS011;23834;48.080;11.682;2023-12-04T07:31:23;4.30;;;3.60;;
38023;SDS011;23834;48.080;11.682;2023-12-04T07:33:48;3.93;;;3.63;;
38023;SDS011;23834;48.080;11.682;2023-12-04T07:36:13;3.97;;;3.67;;
38023;SDS011;23834;48.080;11.682;2023-12-04T07:38:39;4.47;;;3.70;;
38023;SDS011;23834;48.080;11.682;2023-12-04T07:41:04;4.07;;;3.77;;
38023;SDS011;23834;48.080;11.682;2023-12-04T07:43:29;3.87;;;3.57;;
38023;SDS011;23834;48.080;11.682;2023-12-04T07:45:57;4.23;;;3.90;;
38023;SDS011;23834;48.080;11.682;2023-12-04T07:48:22;4.00;;;3.70;;
38023;SDS011;23834;48.080;11.682;2023-12-04T07:50:48;3.90;;;3.60;;
38023;SDS011;23834;48.080;11.682;2023-12-04T07:53:13;4.40;;;4.00;;
38023;SDS011;23834;48.080;11.682;2023-12-04T07:55:38;3.63;;;3.33;;
38023;SDS011;23834;48.080;11.682;2023-12-04T07:58:04;3.93;;;3.53;;
38023;SDS011;23834;48.080;11.682;2023-12-04T08:00:29;4.00;;;3.70;;
38023;SDS011;23834;48.080;11.682;2023-12-04T08:02:54;4.17;;;3.80;;
38023;SDS011;23834;48.080;11.682;2023-12-04T08:05:19;4.23;;;3.83;;
38023;SDS011;23834;48.080;11.682;2023-12-04T08:07:44;3.90;;;3.60;;
38023;SDS011;23834;48.080;11.682;2023-12-04T08:10:10;3.93;;;3.63;;
38023;SDS011;23834;48.080;11.682;2023-12-04T08:12:35;3.87;;;3.57;;
38023;SDS011;23834;48.080;11.682;2023-12-04T08:15:00;4.30;;;3.90;;
38023;SDS011;23834;48.080;11.682;2023-12-04T08:17:26;5.17;;;4.77;;
38023;SDS011;23834;48.080;11.682;2023-12-04T08:19:52;4.33;;;4.03;;
38023;SDS011;23834;48.080;11.682;2023-12-04T08:22:17;4.53;;;4.10;;
38023;SDS011;23834;48.080;11.682;2023-12-04T08:24:42;4.33;;;4.03;;
38023;SDS011;23834;48.080;11.682;2023-12-04T08:27:07;4.53;;;4.13;;
38023;SDS011;23834;48.080;11.682;2023-12-04T08:29:33;5.63;;;5.13;;
38023;SDS011;23834;48.080;11.682;2023-12-04T08:31:58;4.77;;;4.33;;
38023;SDS011;23834;48.080;11.682;2023-12-04T08:34:23;5.17;;;4.77;;
38023;SDS011;23834;48.080;11.682;2023-12-04T08:36:48;4.97;;;4.57;;
38023;SDS011;23834;48.080;11.682;2023-12-04T08:39:14;4.60;;;4.30;;
38023;SDS011;23834;48.080;11.682;2023-12-04T08:41:39;4.80;;;4.50;;
38023;SDS011;23834;48.080;11.682;2023-12-04T08:44:04;5.37;;;4.87;;
38023;SDS011;23834;48.080;11.682;2023-12-04T08:46:29;5.93;;;5.43;;
38023;SDS011;23834;48.080;11.682;2023-12-04T08:48:54;5.60;;;5.10;;
38023;SDS011;23834;48.080;11.682;2023-12-04T08:51:19;5.90;;;5.40;;
38023;SDS011;23834;48.080;11.682;2023-12-04T08:53:45;5.53;;;5.10;;
38023;SDS011;23834;48.080;11.682;2023-12-04T08:56:10;5.97;;;5.47;;
38023;SDS011;23834;48.080;11.682;2023-12-04T08:58:35;5.97;;;5.47;;
38023;SDS011;23834;48.080;11.682;2023-12-04T09:01:00;6.57;;;6.07;;
38023;SDS011;23834;48.080;11.682;2023-12-04T09:03:26;6.23;;;5.73;;
38023;SDS011;23834;48.080;11.682;2023-12-04T09:05:51;12.63;;;9.63;;
38023;SDS011;23834;48.080;11.682;2023-12-04T09:08:17;6.63;;;5.60;;
38023;SDS011;23834;48.080;11.682;2023-12-04T09:10:42;6.03;;;5.53;;
38023;SDS011;23834;48.080;11.682;2023-12-04T09:13:07;6.60;;;5.93;;
38023;SDS011;23834;48.080;11.682;2023-12-04T09:15:32;6.13;;;5.73;;
38023;SDS011;23834;48.080;11.682;2023-12-04T09:17:57;6.87;;;6.27;;
38023;SDS011;23834;48.080;11.682;2023-12-04T09:20:23;6.57;;;6.03;;
38023;SDS011;23834;48.080;11.682;2023-12-04T09:22:48;6.60;;;6.00;;
38023;SDS011;23834;48.080;11.682;2023-12-04T09:25:13;6.77;;;6.27;;
38023;SDS011;23834;48.080;11.682;2023-12-04T09:27:39;6.80;;;6.30;;
38023;SDS011;23834;48.080;11.682;2023-12-04T09:30:04;5.97;;;5.57;;
38023;SDS011;23834;48.080;11.682;2023-12-04T09:32:29;6.47;;;5.90;;
38023;SDS011;23834;48.080;11.682;2023-12-04T09:34:55;6.63;;;6.13;;
38023;SDS011;23834;48.080;11.682;2023-12-04T09:37:20;6.20;;;5.70;;
38023;SDS011;23834;48.080;11.682;2023-12-04T09:39:45;6.17;;;5.70;;
38023;SDS011;23834;48.080;11.682;2023-12-04T09:42:13;6.73;;;6.13;;
38023;SDS011;23834;48.080;11.682;2023-12-04T09:44:38;6.20;;;5.60;;
38023;SDS011;23834;48.080;11.682;2023-12-04T09:47:04;6.23;;;5.70;;
38023;SDS011;23834;48.080;11.682;2023-12-04T09:49:30;6.10;;;5.60;;
38023;SDS011;23834;48.080;11.682;2023-12-04T09:51:57;5.83;;;5.33;;
38023;SDS011;23834;48.080;11.682;2023-12-04T09:54:22;5.70;;;5.20;;
38023;SDS011;23834;48.080;11.682;2023-12-04T09:56:47;5.77;;;5.37;;
38023;SDS011;23834;48.080;11.682;2023-12-04T09:59:14;5.80;;;5.40;;
38023;SDS011;23834;48.080;11.682;2023-12-04T10:01:40;5.87;;;5.37;;
38023;SDS011;23834;48.080;11.682;2023-12-04T10:04:06;6.10;;;5.60;;
38023;SDS011;23834;48.080;11.682;2023-12-04T10:06:31;5.73;;;5.23;;
38023;SDS011;23834;48.080;11.682;2023-12-04T10:08:57;5.40;;;5.00;;
38023;SDS011;23834;48.080;11.682;2023-12-04T10:11:23;5.47;;;5.07;;
38023;SDS011;23834;48.080;11.682;2023-12-04T10:13:48;5.70;;;5.30;;
38023;SDS011;23834;48.080;11.682;2023-12-04T10:16:14;6.00;;;5.50;;
38023;SDS011;23834;48.080;11.682;2023-12-04T10:18:39;5.83;;;5.40;;
38023;SDS011;23834;48.080;11.682;2023-12-04T10:21:04;6.03;;;5.53;;
38023;SDS011;23834;48.080;11.682;2023-12-04T10:23:36;6.40;;;5.80;;
38023;SDS011;23834;48.080;11.682;2023-12-04T10:26:02;6.23;;;5.73;;
38023;SDS011;23834;48.080;11.682;2023-12-04T10:28:27;6.40;;;5.90;;
38023;SDS011;23834;48.080;11.682;2023-12-04T10:30:53;5.83;;;5.30;;
38023;SDS011;23834;48.080;11.682;2023-12-04T10:33:18;6.07;;;5.60;;
38023;SDS011;23834;48.080;11.682;2023-12-04T10:35:43;6.07;;;5.57;;
38023;SDS011;23834;48.080;11.682;2023-12-04T10:38:09;6.03;;;5.53;;
38023;SDS011;23834;48.080;11.682;2023-12-04T10:40:35;5.50;;;5.10;;
38023;SDS011;23834;48.080;11.682;2023-12-04T10:43:16;6.63;;;6.03;;
38023;SDS011;23834;48.080;11.682;2023-12-04T10:45:43;6.57;;;5.97;;
38023;SDS011;23834;48.080;11.682;2023-12-04T10:48:09;5.70;;;5.30;;
38023;SDS011;23834;48.080;11.682;2023-12-04T10:50:36;5.70;;;5.30;;
38023;SDS011;23834;48.080;11.682;2023-12-04T10:53:03;6.10;;;5.70;;
38023;SDS011;23834;48.080;11.682;2023-12-04T10:55:31;6.00;;;5.60;;
38023;SDS011;23834;48.080;11.682;2023-12-04T10:57:56;5.70;;;5.30;;
38023;SDS011;23834;48.080;11.682;2023-12-04T11:00:22;6.00;;;5.50;;
38023;SDS011;23834;48.080;11.682;2023-12-04T11:02:48;6.17;;;5.67;;
38023;SDS011;23834;48.080;11.682;2023-12-04T11:05:15;5.80;;;5.30;;
38023;SDS011;23834;48.080;11.682;2023-12-04T11:07:46;6.10;;;5.63;;
38023;SDS011;23834;48.080;11.682;2023-12-04T11:10:12;5.97;;;5.47;;
38023;SDS011;23834;48.080;11.682;2023-12-04T11:12:40;5.83;;;5.43;;
38023;SDS011;23834;48.080;11.682;2023-12-04T11:15:09;5.47;;;4.97;;
38023;SDS011;23834;48.080;11.682;2023-12-04T11:17:35;5.27;;;4.87;;
38023;SDS011;23834;48.080;11.682;2023-12-04T11:20:04;6.33;;;5.83;;
38023;SDS011;23834;48.080;11.682;2023-12-04T11:22:33;5.77;;;5.33;;
38023;SDS011;23834;48.080;11.682;2023-12-04T11:25:00;5.30;;;4.90;;
38023;SDS011;23834;48.080;11.682;2023-12-04T11:27:26;5.00;;;4.70;;
38023;SDS011;23834;48.080;11.682;2023-12-04T11:29:51;5.80;;;5.30;;
38023;SDS011;23834;48.080;11.682;2023-12-04T11:32:17;5.23;;;4.83;;
38023;SDS011;23834;48.080;11.682;2023-12-04T11:34:49;5.50;;;5.10;;
38023;SDS011;23834;48.080;11.682;2023-12-04T11:37:15;5.70;;;5.30;;
38023;SDS011;23834;48.080;11.682;2023-12-04T11:39:40;4.80;;;4.40;;
38023;SDS011;23834;48.080;11.682;2023-12-04T11:42:06;5.53;;;5.13;;
38023;SDS011;23834;48.080;11.682;2023-12-04T11:44:31;4.70;;;4.40;;
38023;SDS011;23834;48.080;11.682;2023-12-04T11:47:02;5.37;;;4.97;;
38023;SDS011;23834;48.080;11.682;2023-12-04T11:49:28;5.50;;;5.00;;
38023;SDS011;23834;48.080;11.682;2023-12-04T11:51:55;5.53;;;5.13;;
38023;SDS011;23834;48.080;11.682;2023-12-04T11:54:21;5.40;;;5.00;;
38023;SDS011;23834;48.080;11.682;2023-12-04T11:57:03;5.77;;;5.27;;
38023;SDS011;23834;48.080;11.682;2023-12-04T11:59:37;5.50;;;5.00;;
38023;SDS011;23834;48.080;11.682;2023-12-04T12:02:02;5.37;;;4.97;;
38023;SDS011;23834;48.080;11.682;2023-12-04T12:04:27;5.83;;;5.43;;
38023;SDS011;23834;48.080;11.682;2023-12-04T12:06:52;5.60;;;5.10;;
38023;SDS011;23834;48.080;11.682;2023-12-04T12:09:18;6.13;;;5.63;;
38023;SDS011;23834;48.080;11.682;2023-12-04T12:11:43;5.50;;;5.10;;
38023;SDS011;23834;48.080;11.682;2023-12-04T12:14:09;6.03;;;5.53;;
38023;SDS011;23834;48.080;11.682;2023-12-04T12:16:34;5.87;;;5.47;;
38023;SDS011;23834;48.080;11.682;2023-12-04T12:19:00;5.80;;;5.30;;
38023;SDS011;23834;48.080;11.682;2023-12-04T12:21:26;5.90;;;5.40;;
38023;SDS011;23834;48.080;11.682;2023-12-04T12:23:51;5.90;;;5.40;;
38023;SDS011;23834;48.080;11.682;2023-12-04T12:26:16;5.87;;;5.37;;
38023;SDS011;23834;48.080;11.682;2023-12-04T12:28:41;6.10;;;5.60;;
38023;SDS011;23834;48.080;11.682;2023-12-04T12:31:06;6.27;;;5.80;;
38023;SDS011;23834;48.080;11.682;2023-12-04T12:33:32;5.57;;;5.17;;
38023;SDS011;23834;48.080;11.682;2023-12-04T12:35:57;6.00;;;5.50;;
38023;SDS011;23834;48.080;11.682;2023-12-04T12:38:23;5.63;;;5.13;;
38023;SDS011;23834;48.080;11.682;2023-12-04T12:40:48;5.80;;;5.40;;
38023;SDS011;23834;48.080;11.682;2023-12-04T12:43:13;5.37;;;4.83;;
38023;SDS011;23834;48.080;11.682;2023-12-04T12:45:39;5.83;;;5.23;;
38023;SDS011;23834;48.080;11.682;2023-12-04T12:48:05;5.53;;;5.13;;
38023;SDS011;23834;48.080;11.682;2023-12-04T12:50:31;6.40;;;5.90;;
38023;SDS011;23834;48.080;11.682;2023-12-04T12:52:56;6.07;;;5.57;;
38023;SDS011;23834;48.080;11.682;2023-12-04T12:55:23;6.67;;;5.97;;
38023;SDS011;23834;48.080;11.682;2023-12-04T12:57:49;5.87;;;5.47;;
38023;SDS011;23834;48.080;11.682;2023-12-04T13:00:14;6.00;;;5.50;;
38023;SDS011;23834;48.080;11.682;2023-12-04T13:02:39;6.40;;;5.90;;
38023;SDS011;23834;48.080;11.682;2023-12-04T13:05:05;5.17;;;4.83;;
38023;SDS011;23834;48.080;11.682;2023-12-04T13:07:30;5.67;;;5.17;;
38023;SDS011;23834;48.080;11.682;2023-12-04T13:09:56;5.33;;;4.90;;
38023;SDS011;23834;48.080;11.682;2023-12-04T13:12:21;4.93;;;4.53;;
38023;SDS011;23834;48.080;11.682;2023-12-04T13:14:46;5.73;;;5.23;;
38023;SDS011;23834;48.080;11.682;2023-12-04T13:17:11;5.00;;;4.60;;
38023;SDS011;23834;48.080;11.682;2023-12-04T13:19:36;6.33;;;5.83;;
38023;SDS011;23834;48.080;11.682;2023-12-04T13:22:02;5.23;;;4.83;;
38023;SDS011;23834;48.080;11.682;2023-12-04T13:24:29;5.80;;;5.30;;
38023;SDS011;23834;48.080;11.682;2023-12-04T13:26:54;5.63;;;5.23;;
38023;SDS011;23834;48.080;11.682;2023-12-04T13:29:20;5.67;;;5.17;;
38023;SDS011;23834;48.080;11.682;2023-12-04T13:31:45;5.83;;;5.10;;
38023;SDS011;23834;48.080;11.682;2023-12-04T13:34:11;5.40;;;4.90;;
38023;SDS011;23834;48.080;11.682;2023-12-04T13:36:37;5.00;;;4.60;;
38023;SDS011;23834;48.080;11.682;2023-12-04T13:39:02;5.87;;;5.37;;
38023;SDS011;23834;48.080;11.682;2023-12-04T13:41:29;4.97;;;4.63;;
38023;SDS011;23834;48.080;11.682;2023-12-04T13:44:20;5.13;;;4.73;;
38023;SDS011;23834;48.080;11.682;2023-12-04T13:46:45;5.73;;;5.23;;
38023;SDS011;23834;48.080;11.682;2023-12-04T13:49:12;4.93;;;4.63;;
38023;SDS011;23834;48.080;11.682;2023-12-04T13:51:37;5.53;;;5.13;;
38023;SDS011;23834;48.080;11.682;2023-12-04T13:54:05;5.60;;;5.20;;
38023;SDS011;23834;48.080;11.682;2023-12-04T13:56:42;5.60;;;5.10;;
38023;SDS011;23834;48.080;11.682;2023-12-04T13:59:17;5.60;;;5.10;;
38023;SDS011;23834;48.080;11.682;2023-12-04T14:01:44;4.80;;;4.50;;
38023;SDS011;23834;48.080;11.682;2023-12-04T14:04:10;6.03;;;5.53;;
38023;SDS011;23834;48.080;11.682;2023-12-04T14:06:35;5.27;;;4.87;;
38023;SDS011;23834;48.080;11.682;2023-12-04T14:09:00;5.43;;;5.03;;
38023;SDS011;23834;48.080;11.682;2023-12-04T14:11:25;5.37;;;4.97;;
38023;SDS011;23834;48.080;11.682;2023-12-04T14:13:51;5.60;;;5.20;;
38023;SDS011;23834;48.080;11.682;2023-12-04T14:16:16;5.30;;;4.80;;
38023;SDS011;23834;48.080;11.682;2023-12-04T14:18:41;5.43;;;5.03;;
38023;SDS011;23834;48.080;11.682;2023-12-04T14:21:07;4.93;;;4.60;;
38023;SDS011;23834;48.080;11.682;2023-12-04T14:23:32;5.00;;;4.60;;